sensor_id;sensor_type;location;lat;lon;timestamp;P1;durP1;ratioP1;P2;durP2;ratioP2
23258;SDS011;11798;51.528;7.240;2022-11-12T00:00:37;5.37;;;3.57;;
23258;SDS011;11798;51.528;7.240;2022-11-12T00:03:03;3.87;;;3.10;;
23258;SDS011;11798;51.528;7.240;2022-11-12T00:05:30;7.30;;;3.70;;
23258;SDS011;11798;51.528;7.240;2022-11-12T00:07:56;6.70;;;3.40;;
23258;SDS011;11798;51.528;7.240;2022-11-12T00:10:21;6.83;;;3.37;;
23258;SDS011;11798;51.528;7.240;2022-11-12T00:12:47;5.17;;;3.20;;
23258;SDS011;11798;51.528;7.240;2022-11-12T00:15:13;4.07;;;3.23;;
23258;SDS011;11798;51.528;7.240;2022-11-12T00:17:39;6.20;;;3.70;;
23258;SDS011;11798;51.528;7.240;2022-11-12T00:20:04;5.53;;;3.90;;
23258;SDS011;11798;51.528;7.240;2022-11-12T00:22:31;4.07;;;3.30;;
23258;SDS011;11798;51.528;7.240;2022-11-12T00:24:57;7.00;;;3.53;;
23258;SDS011;11798;51.528;7.240;2022-11-12T00:27:22;9.30;;;3.83;;
23258;SDS011;11798;51.528;7.240;2022-11-12T00:29:48;5.60;;;3.33;;
23258;SDS011;11798;51.528;7.240;2022-11-12T00:32:14;6.07;;;3.73;;
23258;SDS011;11798;51.528;7.240;2022-11-12T00:34:39;7.33;;;4.33;;
23258;SDS011;11798;51.528;7.240;2022-11-12T00:37:05;5.70;;;4.23;;
23258;SDS011;11798;51.528;7.240;2022-11-12T00:39:31;7.30;;;3.80;;
23258;SDS011;11798;51.528;7.240;2022-11-12T00:41:57;8.47;;;5.30;;
23258;SDS011;11798;51.528;7.240;2022-11-12T00:44:23;8.10;;;4.73;;
23258;SDS011;11798;51.528;7.240;2022-11-12T00:46:48;7.60;;;4.27;;
23258;SDS011;11798;51.528;7.240;2022-11-12T00:49:14;7.10;;;4.70;;
23258;SDS011;11798;51.528;7.240;2022-11-12T00:51:40;9.97;;;5.00;;
23258;SDS011;11798;51.528;7.240;2022-11-12T00:54:06;9.53;;;5.00;;
23258;SDS011;11798;51.528;7.240;2022-11-12T00:56:33;8.93;;;5.57;;
23258;SDS011;11798;51.528;7.240;2022-11-12T00:58:59;9.47;;;5.33;;
23258;SDS011;11798;51.528;7.240;2022-11-12T01:01:25;10.77;;;5.57;;
23258;SDS011;11798;51.528;7.240;2022-11-12T01:03:51;11.17;;;6.00;;
23258;SDS011;11798;51.528;7.240;2022-11-12T01:06:20;12.67;;;7.07;;
23258;SDS011;11798;51.528;7.240;2022-11-12T01:08:47;13.53;;;7.70;;
23258;SDS011;11798;51.528;7.240;2022-11-12T01:11:14;13.60;;;8.07;;
23258;SDS011;11798;51.528;7.240;2022-11-12T01:13:46;18.13;;;10.37;;
23258;SDS011;11798;51.528;7.240;2022-11-12T01:16:17;22.00;;;10.87;;
23258;SDS011;11798;51.528;7.240;2022-11-12T01:18:45;17.00;;;10.13;;
23258;SDS011;11798;51.528;7.240;2022-11-12T01:21:11;17.77;;;11.20;;
23258;SDS011;11798;51.528;7.240;2022-11-12T01:23:38;18.20;;;10.70;;
23258;SDS011;11798;51.528;7.240;2022-11-12T01:26:05;17.07;;;10.50;;
23258;SDS011;11798;51.528;7.240;2022-11-12T01:28:36;16.30;;;10.07;;
23258;SDS011;11798;51.528;7.240;2022-11-12T01:31:12;16.93;;;9.53;;
23258;SDS011;11798;51.528;7.240;2022-11-12T01:33:41;15.40;;;9.27;;
23258;SDS011;11798;51.528;7.240;2022-11-12T01:36:08;17.90;;;9.67;;
23258;SDS011;11798;51.528;7.240;2022-11-12T01:38:35;17.33;;;9.13;;
23258;SDS011;11798;51.528;7.240;2022-11-12T01:41:01;13.00;;;8.13;;
23258;SDS011;11798;51.528;7.240;2022-11-12T01:43:28;11.40;;;7.70;;
23258;SDS011;11798;51.528;7.240;2022-11-12T01:45:53;12.60;;;7.07;;
23258;SDS011;11798;51.528;7.240;2022-11-12T01:48:25;11.67;;;7.30;;
23258;SDS011;11798;51.528;7.240;2022-11-12T01:51:25;12.30;;;7.30;;
23258;SDS011;11798;51.528;7.240;2022-11-12T01:53:56;14.43;;;7.13;;
23258;SDS011;11798;51.528;7.240;2022-11-12T01:56:23;11.77;;;6.30;;
23258;SDS011;11798;51.528;7.240;2022-11-12T01:58:54;13.77;;;7.60;;
23258;SDS011;11798;51.528;7.240;2022-11-12T02:01:25;15.57;;;8.27;;
23258;SDS011;11798;51.528;7.240;2022-11-12T02:03:50;14.83;;;9.43;;
23258;SDS011;11798;51.528;7.240;2022-11-12T02:06:16;14.43;;;8.93;;
23258;SDS011;11798;51.528;7.240;2022-11-12T02:08:43;15.23;;;8.50;;
23258;SDS011;11798;51.528;7.240;2022-11-12T02:11:13;10.13;;;6.93;;
23258;SDS011;11798;51.528;7.240;2022-11-12T02:13:44;10.80;;;6.50;;
23258;SDS011;11798;51.528;7.240;2022-11-12T02:16:26;9.33;;;6.30;;
23258;SDS011;11798;51.528;7.240;2022-11-12T02:19:02;9.53;;;6.10;;
23258;SDS011;11798;51.528;7.240;2022-11-12T02:21:30;9.37;;;5.37;;
23258;SDS011;11798;51.528;7.240;2022-11-12T02:24:00;7.10;;;5.30;;
23258;SDS011;11798;51.528;7.240;2022-11-12T02:26:27;10.47;;;6.07;;
23258;SDS011;11798;51.528;7.240;2022-11-12T02:28:58;9.67;;;5.97;;
23258;SDS011;11798;51.528;7.240;2022-11-12T02:31:24;9.97;;;5.90;;
23258;SDS011;11798;51.528;7.240;2022-11-12T02:33:49;11.57;;;7.23;;
23258;SDS011;11798;51.528;7.240;2022-11-12T02:36:15;9.60;;;7.37;;
23258;SDS011;11798;51.528;7.240;2022-11-12T02:38:41;11.00;;;6.90;;
23258;SDS011;11798;51.528;7.240;2022-11-12T02:41:06;11.67;;;6.97;;
23258;SDS011;11798;51.528;7.240;2022-11-12T02:43:32;10.67;;;7.23;;
23258;SDS011;11798;51.528;7.240;2022-11-12T02:45:58;10.27;;;6.80;;
23258;SDS011;11798;51.528;7.240;2022-11-12T02:48:23;10.23;;;6.77;;
23258;SDS011;11798;51.528;7.240;2022-11-12T02:50:49;13.20;;;7.23;;
23258;SDS011;11798;51.528;7.240;2022-11-12T02:53:14;7.90;;;6.47;;
23258;SDS011;11798;51.528;7.240;2022-11-12T02:55:41;9.60;;;6.87;;
23258;SDS011;11798;51.528;7.240;2022-11-12T02:58:07;11.93;;;7.17;;
23258;SDS011;11798;51.528;7.240;2022-11-12T03:00:32;12.23;;;7.67;;
23258;SDS011;11798;51.528;7.240;2022-11-12T03:02:58;12.77;;;6.73;;
23258;SDS011;11798;51.528;7.240;2022-11-12T03:05:27;10.37;;;6.43;;
23258;SDS011;11798;51.528;7.240;2022-11-12T03:07:58;9.90;;;6.07;;
23258;SDS011;11798;51.528;7.240;2022-11-12T03:10:25;7.37;;;5.43;;
23258;SDS011;11798;51.528;7.240;2022-11-12T03:12:51;7.53;;;5.20;;
23258;SDS011;11798;51.528;7.240;2022-11-12T03:15:17;7.23;;;5.20;;
23258;SDS011;11798;51.528;7.240;2022-11-12T03:17:43;9.37;;;4.83;;
23258;SDS011;11798;51.528;7.240;2022-11-12T03:20:09;9.40;;;4.93;;
23258;SDS011;11798;51.528;7.240;2022-11-12T03:22:35;6.20;;;4.70;;
23258;SDS011;11798;51.528;7.240;2022-11-12T03:25:02;8.37;;;4.90;;
23258;SDS011;11798;51.528;7.240;2022-11-12T03:27:28;8.23;;;4.37;;
23258;SDS011;11798;51.528;7.240;2022-11-12T03:29:53;5.93;;;4.63;;
23258;SDS011;11798;51.528;7.240;2022-11-12T03:32:19;9.97;;;4.77;;
23258;SDS011;11798;51.528;7.240;2022-11-12T03:34:44;8.83;;;4.27;;
23258;SDS011;11798;51.528;7.240;2022-11-12T03:37:10;6.17;;;4.23;;
23258;SDS011;11798;51.528;7.240;2022-11-12T03:39:35;6.47;;;3.90;;
23258;SDS011;11798;51.528;7.240;2022-11-12T03:42:01;5.17;;;3.90;;
23258;SDS011;11798;51.528;7.240;2022-11-12T03:44:27;6.83;;;4.40;;
23258;SDS011;11798;51.528;7.240;2022-11-12T03:46:53;4.10;;;3.53;;
23258;SDS011;11798;51.528;7.240;2022-11-12T03:49:18;7.00;;;4.10;;
23258;SDS011;11798;51.528;7.240;2022-11-12T03:51:44;6.97;;;4.30;;
23258;SDS011;11798;51.528;7.240;2022-11-12T03:54:10;7.73;;;3.90;;
23258;SDS011;11798;51.528;7.240;2022-11-12T03:56:36;5.77;;;3.57;;
23258;SDS011;11798;51.528;7.240;2022-11-12T03:59:02;7.50;;;3.97;;
23258;SDS011;11798;51.528;7.240;2022-11-12T04:01:28;5.03;;;3.40;;
23258;SDS011;11798;51.528;7.240;2022-11-12T04:03:53;4.43;;;2.83;;
23258;SDS011;11798;51.528;7.240;2022-11-12T04:06:19;6.70;;;3.47;;
23258;SDS011;11798;51.528;7.240;2022-11-12T04:09:03;4.50;;;3.40;;
23258;SDS011;11798;51.528;7.240;2022-11-12T04:11:29;4.20;;;3.20;;
23258;SDS011;11798;51.528;7.240;2022-11-12T04:13:54;5.20;;;3.23;;
23258;SDS011;11798;51.528;7.240;2022-11-12T04:16:21;5.30;;;3.17;;
23258;SDS011;11798;51.528;7.240;2022-11-12T04:19:07;5.10;;;3.40;;
23258;SDS011;11798;51.528;7.240;2022-11-12T04:27:13;4.60;;;3.30;;
23258;SDS011;11798;51.528;7.240;2022-11-12T04:29:41;4.13;;;3.40;;
23258;SDS011;11798;51.528;7.240;2022-11-12T04:32:26;6.53;;;3.53;;
23258;SDS011;11798;51.528;7.240;2022-11-12T04:34:52;9.20;;;3.77;;
23258;SDS011;11798;51.528;7.240;2022-11-12T04:37:18;5.40;;;3.63;;
23258;SDS011;11798;51.528;7.240;2022-11-12T04:39:43;6.33;;;3.47;;
23258;SDS011;11798;51.528;7.240;2022-11-12T04:42:09;6.00;;;3.80;;
23258;SDS011;11798;51.528;7.240;2022-11-12T04:44:54;7.50;;;3.73;;
23258;SDS011;11798;51.528;7.240;2022-11-12T04:47:23;4.10;;;3.40;;
23258;SDS011;11798;51.528;7.240;2022-11-12T04:49:53;4.87;;;3.20;;
23258;SDS011;11798;51.528;7.240;2022-11-12T04:52:19;6.10;;;4.30;;
23258;SDS011;11798;51.528;7.240;2022-11-12T04:54:44;4.97;;;3.47;;
23258;SDS011;11798;51.528;7.240;2022-11-12T04:57:10;5.73;;;3.43;;
23258;SDS011;11798;51.528;7.240;2022-11-12T04:59:36;5.43;;;3.40;;
23258;SDS011;11798;51.528;7.240;2022-11-12T05:02:01;11.87;;;6.13;;
23258;SDS011;11798;51.528;7.240;2022-11-12T05:04:27;6.87;;;4.83;;
23258;SDS011;11798;51.528;7.240;2022-11-12T05:06:55;7.33;;;4.90;;
23258;SDS011;11798;51.528;7.240;2022-11-12T05:09:23;6.10;;;4.20;;
23258;SDS011;11798;51.528;7.240;2022-11-12T05:11:50;5.57;;;3.80;;
23258;SDS011;11798;51.528;7.240;2022-11-12T05:14:16;6.23;;;3.80;;
23258;SDS011;11798;51.528;7.240;2022-11-12T05:16:43;4.80;;;3.93;;
23258;SDS011;11798;51.528;7.240;2022-11-12T05:19:09;6.43;;;4.33;;
23258;SDS011;11798;51.528;7.240;2022-11-12T05:21:35;4.90;;;3.57;;
23258;SDS011;11798;51.528;7.240;2022-11-12T05:24:19;5.77;;;3.90;;
23258;SDS011;11798;51.528;7.240;2022-11-12T05:26:45;5.17;;;3.67;;
23258;SDS011;11798;51.528;7.240;2022-11-12T05:29:10;6.37;;;3.60;;
23258;SDS011;11798;51.528;7.240;2022-11-12T05:31:36;4.63;;;3.60;;
23258;SDS011;11798;51.528;7.240;2022-11-12T05:34:01;6.73;;;3.83;;
23258;SDS011;11798;51.528;7.240;2022-11-12T05:36:27;5.47;;;3.90;;
23258;SDS011;11798;51.528;7.240;2022-11-12T05:38:53;7.47;;;3.80;;
23258;SDS011;11798;51.528;7.240;2022-11-12T05:41:18;4.93;;;3.87;;
23258;SDS011;11798;51.528;7.240;2022-11-12T05:43:44;10.73;;;6.10;;
23258;SDS011;11798;51.528;7.240;2022-11-12T05:46:09;6.30;;;4.80;;
23258;SDS011;11798;51.528;7.240;2022-11-12T05:48:35;7.77;;;4.03;;
23258;SDS011;11798;51.528;7.240;2022-11-12T05:51:00;7.23;;;4.23;;
23258;SDS011;11798;51.528;7.240;2022-11-12T05:53:26;7.93;;;4.53;;
23258;SDS011;11798;51.528;7.240;2022-11-12T05:55:52;5.40;;;3.97;;
23258;SDS011;11798;51.528;7.240;2022-11-12T05:58:17;5.17;;;3.47;;
23258;SDS011;11798;51.528;7.240;2022-11-12T06:00:43;5.20;;;3.93;;
23258;SDS011;11798;51.528;7.240;2022-11-12T06:03:09;5.83;;;4.03;;
23258;SDS011;11798;51.528;7.240;2022-11-12T06:05:35;8.17;;;4.40;;
23258;SDS011;11798;51.528;7.240;2022-11-12T06:08:02;6.63;;;4.47;;
23258;SDS011;11798;51.528;7.240;2022-11-12T06:10:29;7.10;;;3.73;;
23258;SDS011;11798;51.528;7.240;2022-11-12T06:12:56;5.90;;;3.63;;
23258;SDS011;11798;51.528;7.240;2022-11-12T06:15:21;6.30;;;3.87;;
23258;SDS011;11798;51.528;7.240;2022-11-12T06:17:50;4.07;;;3.13;;
23258;SDS011;11798;51.528;7.240;2022-11-12T06:20:17;5.43;;;3.60;;
23258;SDS011;11798;51.528;7.240;2022-11-12T06:22:43;5.27;;;3.60;;
23258;SDS011;11798;51.528;7.240;2022-11-12T06:25:08;6.70;;;3.57;;
23258;SDS011;11798;51.528;7.240;2022-11-12T06:27:34;8.73;;;4.90;;
23258;SDS011;11798;51.528;7.240;2022-11-12T06:29:59;7.00;;;3.90;;
23258;SDS011;11798;51.528;7.240;2022-11-12T06:32:25;5.97;;;3.90;;
23258;SDS011;11798;51.528;7.240;2022-11-12T06:34:51;6.87;;;3.70;;
23258;SDS011;11798;51.528;7.240;2022-11-12T06:37:17;8.20;;;3.90;;
23258;SDS011;11798;51.528;7.240;2022-11-12T06:39:43;4.67;;;3.53;;
23258;SDS011;11798;51.528;7.240;2022-11-12T06:42:09;6.07;;;3.83;;
23258;SDS011;11798;51.528;7.240;2022-11-12T06:44:35;6.03;;;3.63;;
23258;SDS011;11798;51.528;7.240;2022-11-12T06:47:00;4.50;;;3.00;;
23258;SDS011;11798;51.528;7.240;2022-11-12T06:49:26;7.67;;;3.97;;
23258;SDS011;11798;51.528;7.240;2022-11-12T06:51:52;5.07;;;3.17;;
23258;SDS011;11798;51.528;7.240;2022-11-12T06:54:17;6.33;;;3.20;;
23258;SDS011;11798;51.528;7.240;2022-11-12T06:56:43;3.77;;;3.00;;
23258;SDS011;11798;51.528;7.240;2022-11-12T06:59:09;5.67;;;4.00;;
23258;SDS011;11798;51.528;7.240;2022-11-12T07:01:35;5.43;;;3.97;;
23258;SDS011;11798;51.528;7.240;2022-11-12T07:04:00;6.20;;;3.60;;
23258;SDS011;11798;51.528;7.240;2022-11-12T07:06:27;7.70;;;4.00;;
23258;SDS011;11798;51.528;7.240;2022-11-12T07:08:52;7.23;;;3.87;;
23258;SDS011;11798;51.528;7.240;2022-11-12T07:11:18;5.20;;;4.20;;
23258;SDS011;11798;51.528;7.240;2022-11-12T07:13:44;7.57;;;3.63;;
23258;SDS011;11798;51.528;7.240;2022-11-12T07:16:11;4.83;;;3.90;;
23258;SDS011;11798;51.528;7.240;2022-11-12T07:18:42;5.20;;;3.77;;
23258;SDS011;11798;51.528;7.240;2022-11-12T07:21:10;5.20;;;4.10;;
23258;SDS011;11798;51.528;7.240;2022-11-12T07:23:39;7.77;;;4.43;;
23258;SDS011;11798;51.528;7.240;2022-11-12T07:26:06;5.67;;;4.43;;
23258;SDS011;11798;51.528;7.240;2022-11-12T07:28:36;6.40;;;4.57;;
23258;SDS011;11798;51.528;7.240;2022-11-12T07:31:05;7.53;;;4.33;;
23258;SDS011;11798;51.528;7.240;2022-11-12T07:33:33;6.63;;;4.00;;
23258;SDS011;11798;51.528;7.240;2022-11-12T07:36:00;4.77;;;3.90;;
23258;SDS011;11798;51.528;7.240;2022-11-12T07:38:30;7.33;;;3.33;;
23258;SDS011;11798;51.528;7.240;2022-11-12T07:41:00;5.27;;;3.57;;
23258;SDS011;11798;51.528;7.240;2022-11-12T07:43:31;6.30;;;4.03;;
23258;SDS011;11798;51.528;7.240;2022-11-12T07:46:21;5.30;;;4.10;;
23258;SDS011;11798;51.528;7.240;2022-11-12T07:48:47;6.03;;;4.07;;
23258;SDS011;11798;51.528;7.240;2022-11-12T07:51:16;6.17;;;4.13;;
23258;SDS011;11798;51.528;7.240;2022-11-12T07:53:44;8.07;;;3.97;;
23258;SDS011;11798;51.528;7.240;2022-11-12T07:56:12;7.33;;;4.10;;
23258;SDS011;11798;51.528;7.240;2022-11-12T07:58:39;8.13;;;3.90;;
23258;SDS011;11798;51.528;7.240;2022-11-12T08:03:34;6.10;;;4.00;;
23258;SDS011;11798;51.528;7.240;2022-11-12T08:05:59;6.90;;;4.13;;
23258;SDS011;11798;51.528;7.240;2022-11-12T08:08:25;5.00;;;3.87;;
23258;SDS011;11798;51.528;7.240;2022-11-12T08:10:55;6.17;;;4.13;;
23258;SDS011;11798;51.528;7.240;2022-11-12T08:13:21;6.50;;;4.10;;
23258;SDS011;11798;51.528;7.240;2022-11-12T08:15:46;7.87;;;4.30;;
23258;SDS011;11798;51.528;7.240;2022-11-12T08:18:12;5.10;;;3.37;;
23258;SDS011;11798;51.528;7.240;2022-11-12T08:20:38;5.40;;;3.00;;
23258;SDS011;11798;51.528;7.240;2022-11-12T08:23:04;6.27;;;3.90;;
23258;SDS011;11798;51.528;7.240;2022-11-12T08:25:29;5.40;;;3.93;;
23258;SDS011;11798;51.528;7.240;2022-11-12T08:27:58;5.53;;;3.87;;
23258;SDS011;11798;51.528;7.240;2022-11-12T08:30:27;5.00;;;3.63;;
23258;SDS011;11798;51.528;7.240;2022-11-12T08:32:55;5.23;;;3.83;;
23258;SDS011;11798;51.528;7.240;2022-11-12T08:35:26;6.10;;;3.80;;
23258;SDS011;11798;51.528;7.240;2022-11-12T08:40:24;5.00;;;3.50;;
23258;SDS011;11798;51.528;7.240;2022-11-12T08:43:00;5.90;;;3.80;;
23258;SDS011;11798;51.528;7.240;2022-11-12T08:45:28;4.67;;;3.60;;
23258;SDS011;11798;51.528;7.240;2022-11-12T08:48:14;5.63;;;4.03;;
23258;SDS011;11798;51.528;7.240;2022-11-12T08:50:40;5.73;;;3.70;;
23258;SDS011;11798;51.528;7.240;2022-11-12T08:53:07;4.83;;;3.57;;
23258;SDS011;11798;51.528;7.240;2022-11-12T08:55:35;4.97;;;3.43;;
23258;SDS011;11798;51.528;7.240;2022-11-12T08:58:01;8.80;;;3.80;;
23258;SDS011;11798;51.528;7.240;2022-11-12T09:00:28;10.50;;;3.50;;
23258;SDS011;11798;51.528;7.240;2022-11-12T09:02:55;9.10;;;4.27;;
23258;SDS011;11798;51.528;7.240;2022-11-12T09:05:24;6.70;;;4.10;;
23258;SDS011;11798;51.528;7.240;2022-11-12T09:08:23;9.33;;;4.70;;
23258;SDS011;11798;51.528;7.240;2022-11-12T09:10:43;7.53;;;3.70;;
23258;SDS011;11798;51.528;7.240;2022-11-12T09:13:10;5.63;;;3.83;;
23258;SDS011;11798;51.528;7.240;2022-11-12T09:15:36;5.20;;;3.60;;
23258;SDS011;11798;51.528;7.240;2022-11-12T09:18:03;7.33;;;4.40;;
23258;SDS011;11798;51.528;7.240;2022-11-12T09:20:30;6.73;;;4.03;;
23258;SDS011;11798;51.528;7.240;2022-11-12T09:22:59;9.90;;;3.87;;
23258;SDS011;11798;51.528;7.240;2022-11-12T09:25:26;6.03;;;4.17;;
23258;SDS011;11798;51.528;7.240;2022-11-12T09:27:52;6.87;;;4.10;;
23258;SDS011;11798;51.528;7.240;2022-11-12T09:30:18;8.37;;;5.27;;
23258;SDS011;11798;51.528;7.240;2022-11-12T09:32:44;6.50;;;5.53;;
23258;SDS011;11798;51.528;7.240;2022-11-12T09:35:09;7.83;;;5.70;;
23258;SDS011;11798;51.528;7.240;2022-11-12T09:37:37;10.33;;;7.60;;
23258;SDS011;11798;51.528;7.240;2022-11-12T09:40:06;11.33;;;7.33;;
23258;SDS011;11798;51.528;7.240;2022-11-12T09:42:40;9.80;;;7.50;;
23258;SDS011;11798;51.528;7.240;2022-11-12T09:45:21;10.77;;;7.13;;
23258;SDS011;11798;51.528;7.240;2022-11-12T09:48:01;8.63;;;7.07;;
23258;SDS011;11798;51.528;7.240;2022-11-12T09:50:35;11.00;;;6.93;;
23258;SDS011;11798;51.528;7.240;2022-11-12T09:53:52;12.67;;;6.77;;
23258;SDS011;11798;51.528;7.240;2022-11-12T09:56:09;9.90;;;6.90;;
23258;SDS011;11798;51.528;7.240;2022-11-12T09:58:37;10.60;;;6.50;;
23258;SDS011;11798;51.528;7.240;2022-11-12T10:03:45;8.47;;;5.73;;
23258;SDS011;11798;51.528;7.240;2022-11-12T10:06:40;8.67;;;6.00;;
23258;SDS011;11798;51.528;7.240;2022-11-12T10:09:27;8.60;;;5.90;;
23258;SDS011;11798;51.528;7.240;2022-11-12T10:12:04;7.43;;;5.70;;
23258;SDS011;11798;51.528;7.240;2022-11-12T10:18:26;9.10;;;5.50;;
23258;SDS011;11798;51.528;7.240;2022-11-12T10:26:13;8.57;;;6.70;;
23258;SDS011;11798;51.528;7.240;2022-11-12T10:31:36;9.77;;;6.40;;
23258;SDS011;11798;51.528;7.240;2022-11-12T10:36:37;10.10;;;6.47;;
23258;SDS011;11798;51.528;7.240;2022-11-12T10:39:08;8.00;;;5.63;;
23258;SDS011;11798;51.528;7.240;2022-11-12T10:41:34;9.47;;;7.00;;
23258;SDS011;11798;51.528;7.240;2022-11-12T10:44:03;7.90;;;6.90;;
23258;SDS011;11798;51.528;7.240;2022-11-12T10:46:31;8.30;;;7.37;;
23258;SDS011;11798;51.528;7.240;2022-11-12T10:49:20;10.63;;;7.30;;
23258;SDS011;11798;51.528;7.240;2022-11-12T10:51:53;9.17;;;6.77;;
23258;SDS011;11798;51.528;7.240;2022-11-12T10:54:35;8.10;;;6.17;;
23258;SDS011;11798;51.528;7.240;2022-11-12T10:59:44;10.00;;;6.70;;
23258;SDS011;11798;51.528;7.240;2022-11-12T11:02:14;7.57;;;5.73;;
23258;SDS011;11798;51.528;7.240;2022-11-12T11:04:42;7.07;;;5.17;;
23258;SDS011;11798;51.528;7.240;2022-11-12T11:07:21;7.97;;;4.90;;
23258;SDS011;11798;51.528;7.240;2022-11-12T11:15:06;8.37;;;5.60;;
23258;SDS011;11798;51.528;7.240;2022-11-12T11:17:35;7.37;;;4.70;;
23258;SDS011;11798;51.528;7.240;2022-11-12T11:20:02;7.03;;;4.80;;
23258;SDS011;11798;51.528;7.240;2022-11-12T11:25:18;7.67;;;4.40;;
23258;SDS011;11798;51.528;7.240;2022-11-12T11:30:19;9.37;;;4.07;;
23258;SDS011;11798;51.528;7.240;2022-11-12T11:40:52;5.03;;;3.80;;
23258;SDS011;11798;51.528;7.240;2022-11-12T11:46:04;4.97;;;3.57;;
23258;SDS011;11798;51.528;7.240;2022-11-12T11:49:14;4.93;;;3.60;;
23258;SDS011;11798;51.528;7.240;2022-11-12T11:54:23;7.20;;;5.03;;
23258;SDS011;11798;51.528;7.240;2022-11-12T11:56:55;5.70;;;4.60;;
23258;SDS011;11798;51.528;7.240;2022-11-12T12:10:19;6.60;;;4.97;;
23258;SDS011;11798;51.528;7.240;2022-11-12T12:13:07;7.53;;;5.40;;
23258;SDS011;11798;51.528;7.240;2022-11-12T12:18:41;9.83;;;7.23;;
23258;SDS011;11798;51.528;7.240;2022-11-12T12:21:17;9.50;;;7.23;;
23258;SDS011;11798;51.528;7.240;2022-11-12T12:23:51;10.13;;;6.80;;
23258;SDS011;11798;51.528;7.240;2022-11-12T12:26:26;11.30;;;8.07;;
23258;SDS011;11798;51.528;7.240;2022-11-12T12:29:04;8.70;;;6.77;;
23258;SDS011;11798;51.528;7.240;2022-11-12T12:31:47;11.33;;;7.20;;
23258;SDS011;11798;51.528;7.240;2022-11-12T12:36:56;9.87;;;6.57;;
23258;SDS011;11798;51.528;7.240;2022-11-12T12:39:46;10.87;;;7.50;;
23258;SDS011;11798;51.528;7.240;2022-11-12T12:42:25;11.07;;;7.23;;
23258;SDS011;11798;51.528;7.240;2022-11-12T12:44:59;10.77;;;7.63;;
23258;SDS011;11798;51.528;7.240;2022-11-12T12:47:39;11.53;;;7.07;;
23258;SDS011;11798;51.528;7.240;2022-11-12T12:50:11;9.90;;;6.57;;
23258;SDS011;11798;51.528;7.240;2022-11-12T12:55:50;10.63;;;6.07;;
23258;SDS011;11798;51.528;7.240;2022-11-12T13:01:39;8.53;;;5.33;;
23258;SDS011;11798;51.528;7.240;2022-11-12T13:04:05;8.80;;;5.40;;
23258;SDS011;11798;51.528;7.240;2022-11-12T13:17:03;8.13;;;4.90;;
23258;SDS011;11798;51.528;7.240;2022-11-12T13:19:32;7.27;;;5.27;;
23258;SDS011;11798;51.528;7.240;2022-11-12T13:22:46;9.50;;;4.80;;
23258;SDS011;11798;51.528;7.240;2022-11-12T13:37:42;7.80;;;4.43;;
23258;SDS011;11798;51.528;7.240;2022-11-12T13:40:12;7.40;;;4.67;;
23258;SDS011;11798;51.528;7.240;2022-11-12T13:42:41;6.93;;;4.60;;
23258;SDS011;11798;51.528;7.240;2022-11-12T13:45:16;7.10;;;4.03;;
23258;SDS011;11798;51.528;7.240;2022-11-12T13:47:47;5.27;;;4.10;;
23258;SDS011;11798;51.528;7.240;2022-11-12T13:50:17;7.63;;;4.40;;
23258;SDS011;11798;51.528;7.240;2022-11-12T13:52:45;6.67;;;4.50;;
23258;SDS011;11798;51.528;7.240;2022-11-12T13:55:18;7.57;;;4.50;;
23258;SDS011;11798;51.528;7.240;2022-11-12T13:57:54;6.83;;;4.73;;
23258;SDS011;11798;51.528;7.240;2022-11-12T14:00:27;6.00;;;4.70;;
23258;SDS011;11798;51.528;7.240;2022-11-12T14:03:00;8.70;;;4.80;;
23258;SDS011;11798;51.528;7.240;2022-11-12T14:05:32;5.80;;;4.70;;
23258;SDS011;11798;51.528;7.240;2022-11-12T14:11:47;8.80;;;5.10;;
23258;SDS011;11798;51.528;7.240;2022-11-12T14:22:10;8.20;;;5.57;;
23258;SDS011;11798;51.528;7.240;2022-11-12T14:24:41;8.47;;;5.47;;
23258;SDS011;11798;51.528;7.240;2022-11-12T14:27:20;11.17;;;6.93;;
23258;SDS011;11798;51.528;7.240;2022-11-12T14:32:39;10.17;;;6.83;;
23258;SDS011;11798;51.528;7.240;2022-11-12T14:35:16;10.90;;;6.33;;
23258;SDS011;11798;51.528;7.240;2022-11-12T14:37:41;10.57;;;6.17;;
23258;SDS011;11798;51.528;7.240;2022-11-12T14:40:15;9.10;;;5.77;;
23258;SDS011;11798;51.528;7.240;2022-11-12T14:42:42;9.07;;;6.63;;
23258;SDS011;11798;51.528;7.240;2022-11-12T14:45:17;9.53;;;7.00;;
23258;SDS011;11798;51.528;7.240;2022-11-12T14:47:45;10.93;;;7.53;;
23258;SDS011;11798;51.528;7.240;2022-11-12T14:50:14;13.37;;;7.53;;
23258;SDS011;11798;51.528;7.240;2022-11-12T14:53:07;11.47;;;8.00;;
23258;SDS011;11798;51.528;7.240;2022-11-12T14:55:38;11.87;;;8.23;;
23258;SDS011;11798;51.528;7.240;2022-11-12T14:58:06;11.40;;;8.20;;
23258;SDS011;11798;51.528;7.240;2022-11-12T15:00:40;11.33;;;7.77;;
23258;SDS011;11798;51.528;7.240;2022-11-12T15:03:10;15.27;;;8.60;;
23258;SDS011;11798;51.528;7.240;2022-11-12T15:05:52;12.87;;;9.00;;
23258;SDS011;11798;51.528;7.240;2022-11-12T15:08:29;90.33;;;19.07;;
23258;SDS011;11798;51.528;7.240;2022-11-12T15:10:56;19.80;;;9.87;;
23258;SDS011;11798;51.528;7.240;2022-11-12T15:13:39;89.53;;;19.73;;
23258;SDS011;11798;51.528;7.240;2022-11-12T15:16:06;21.40;;;10.33;;
23258;SDS011;11798;51.528;7.240;2022-11-12T15:18:34;112.27;;;23.60;;
23258;SDS011;11798;51.528;7.240;2022-11-12T15:21:19;77.20;;;21.97;;
23258;SDS011;11798;51.528;7.240;2022-11-12T15:23:51;17.23;;;10.63;;
23258;SDS011;11798;51.528;7.240;2022-11-12T15:26:25;13.87;;;9.63;;
23258;SDS011;11798;51.528;7.240;2022-11-12T15:29:02;12.80;;;8.60;;
23258;SDS011;11798;51.528;7.240;2022-11-12T15:31:41;11.70;;;7.70;;
23258;SDS011;11798;51.528;7.240;2022-11-12T15:37:03;15.27;;;9.37;;
23258;SDS011;11798;51.528;7.240;2022-11-12T15:39:31;13.63;;;9.97;;
23258;SDS011;11798;51.528;7.240;2022-11-12T15:42:03;12.73;;;9.00;;
23258;SDS011;11798;51.528;7.240;2022-11-12T15:44:38;14.33;;;8.73;;
23258;SDS011;11798;51.528;7.240;2022-11-12T15:47:04;14.80;;;9.30;;
23258;SDS011;11798;51.528;7.240;2022-11-12T15:49:29;15.43;;;8.80;;
23258;SDS011;11798;51.528;7.240;2022-11-12T15:51:55;15.43;;;9.37;;
23258;SDS011;11798;51.528;7.240;2022-11-12T15:54:21;17.43;;;11.27;;
23258;SDS011;11798;51.528;7.240;2022-11-12T15:56:46;19.00;;;12.10;;
23258;SDS011;11798;51.528;7.240;2022-11-12T15:59:13;24.63;;;13.60;;
23258;SDS011;11798;51.528;7.240;2022-11-12T16:01:40;23.93;;;13.67;;
23258;SDS011;11798;51.528;7.240;2022-11-12T16:04:12;23.70;;;13.20;;
23258;SDS011;11798;51.528;7.240;2022-11-12T16:06:38;18.37;;;12.20;;
23258;SDS011;11798;51.528;7.240;2022-11-12T16:09:03;19.73;;;11.50;;
23258;SDS011;11798;51.528;7.240;2022-11-12T16:11:29;18.00;;;11.43;;
23258;SDS011;11798;51.528;7.240;2022-11-12T16:14:01;17.97;;;11.63;;
23258;SDS011;11798;51.528;7.240;2022-11-12T16:16:33;17.67;;;10.90;;
23258;SDS011;11798;51.528;7.240;2022-11-12T16:19:00;18.60;;;10.93;;
23258;SDS011;11798;51.528;7.240;2022-11-12T16:21:25;17.33;;;11.20;;
23258;SDS011;11798;51.528;7.240;2022-11-12T16:23:51;19.50;;;12.47;;
23258;SDS011;11798;51.528;7.240;2022-11-12T16:26:19;20.10;;;13.07;;
23258;SDS011;11798;51.528;7.240;2022-11-12T16:28:49;20.03;;;13.53;;
23258;SDS011;11798;51.528;7.240;2022-11-12T16:31:15;17.83;;;12.10;;
23258;SDS011;11798;51.528;7.240;2022-11-12T16:33:40;14.53;;;10.57;;
23258;SDS011;11798;51.528;7.240;2022-11-12T16:36:12;14.87;;;9.67;;
23258;SDS011;11798;51.528;7.240;2022-11-12T16:38:39;14.87;;;9.47;;
23258;SDS011;11798;51.528;7.240;2022-11-12T16:41:08;14.80;;;10.13;;
23258;SDS011;11798;51.528;7.240;2022-11-12T16:43:34;20.73;;;12.03;;
23258;SDS011;11798;51.528;7.240;2022-11-12T16:46:00;16.33;;;10.63;;
23258;SDS011;11798;51.528;7.240;2022-11-12T16:48:26;20.77;;;14.67;;
23258;SDS011;11798;51.528;7.240;2022-11-12T16:50:51;17.37;;;13.70;;
23258;SDS011;11798;51.528;7.240;2022-11-12T16:53:17;28.50;;;18.93;;